KPZQ METAR Reports


Rogers City, Presque Isle County Airport, MI, United States (KPZQ) 45-24-25N 083-48-46W
Oct 17, 2019 - 09:19 PM EDT / 2019.10.18 0119 UTC
Wind: from the NNW (340 degrees) at 13 MPH (11 KT) gusting to 17 MPH (15 KT):0
Visibility: 10 mile(s):0
Sky conditions: overcast
Temperature: 44.8 F (7.1 C)
Dew Point: 36.9 F (2.7 C)
Relative Humidity: 73%
Pressure (altimeter): 29.98 in. Hg (1015 hPa)
ob: KPZQ 180119Z AUTO 34011G15KT 10SM SCT023 SCT029 OVC045 07/03 A2998 RMK AO2 T00710027
cycle: 1

 

Rogers City METAR Meteogram

Weather Chart

Nearby METAR Reports

KPZQ - Rogers City, Michigan, USA
Distance from station: SSW 1mi, 2km
Updated: Thu, 17-Oct-2019 8:55pm EDT
NOT Current
Overcast
Overcast
 Wind from NW
Wind: NW 12 mph , 19 km/h, Gust: 18 mph , 30 km/h
Temperature: 45°F , 7°C
Wind Chill: 39°F , 4°C
Dew Point: 37°F , 3°C
Humidity: 76%
Barometer: 29.98 inHg , 1015.2 hPa
Clouds: Overcast
Visibility: 10 miles , 16 km
Cloud details: Partly cloudy 2300 ft
Partly cloudy 3700 ft
Overcast 4500 ft
2019/10/18 00:55 KPZQ 180055Z AUTO 32010G16KT 10SM SCT023 SCT037 OVC045 07/03 A2998 RMK AO2 T00710031
KAPN - Alpena, Michigan, USA
Distance from station: SSE 27mi, 43km
Updated: Thu, 17-Oct-2019 8:54pm EDT
NOT Current
Few Clouds
Few Clouds
 Wind from WNW
Wind: WNW 5 mph , 7 km/h
Temperature: 43°F , 6°C
Wind Chill: 40°F , 4°C
Dew Point: 36°F , 2°C
Humidity: 76%
Barometer: 29.97 inHg , 1014.9 hPa
Clouds: Few Clouds
Visibility: 10 miles , 16 km
Cloud details: Few Clouds 2800 ft
2019/10/18 00:54 KAPN 180054Z AUTO 30004KT 10SM FEW028 06/02 A2997 RMK AO2 RAB11E27 SLP154 P0000 T00560022
 
KSLH - Cheboygan, Michigan, USA
Distance from station: WNW 38mi, 61km
Updated: Thu, 17-Oct-2019 9:16pm EDT
Partly cloudy
Partly cloudy
 Wind from NW
Wind: NW 8 mph , 13 km/h
Temperature: 41°F , 5°C
Wind Chill: 36°F , 2°C
Dew Point: 34°F , 1°C
Humidity: 76%
Barometer: 29.98 inHg , 1015.2 hPa
Clouds: Partly cloudy
Visibility: 10 miles , 16 km
Cloud details: Partly cloudy 4000 ft
2019/10/18 01:16 KSLH 180116Z AUTO 31007KT 10SM SCT040 05/01 A2998 RMK AO2 T00460006
KDRM - Drummond Is, Michigan, USA
Distance from station: N 40mi, 65km
Updated: Thu, 17-Oct-2019 9:16pm EDT
Clear
Clear
 Wind from NNW
Wind: NNW 3 mph , 6 km/h
Temperature: 46°F , 8°C
Dew Point: 37°F , 3°C
Humidity: 71%
Barometer: 29.96 inHg , 1014.6 hPa
Clouds: Clear
Visibility: 10 miles , 16 km
2019/10/18 01:16 KDRM 180116Z AUTO 34003KT 10SM CLR 08/03 A2996 RMK AO2 T00750029
 
KPLN - Pellston, Michigan, USA
Distance from station: WNW 49mi, 79km
Updated: Thu, 17-Oct-2019 8:54pm EDT
NOT Current
Clear
Clear
 Wind from NW
Wind: NW 5 mph , 7 km/h
Temperature: 37°F , 3°C
Wind Chill: 33°F , 1°C
Dew Point: 30°F , -1°C
Humidity: 75%
Barometer: 30.00 inHg , 1015.9 hPa
Clouds: Clear
Visibility: 10 miles , 16 km
2019/10/18 00:54 KPLN 180054Z AUTO 32004KT 10SM CLR 03/M01 A3000 RMK AO2 SLP165 T00281006
KMCD - Mackinac Island, Michigan, USA
Distance from station: NW 50mi, 80km
Updated: Thu, 17-Oct-2019 9:15pm EDT
Overcast
Overcast
 Wind from NNW
Wind: NNW 8 mph , 13 km/h
Temperature: 43°F , 6°C
Wind Chill: 38°F , 3°C
Dew Point: 36°F , 2°C
Humidity: 76%
Barometer: 29.99 inHg , 1015.6 hPa
Clouds: Overcast
Visibility: 10 miles , 16 km
Cloud details: Overcast 3800 ft
2019/10/18 01:15 KMCD 180115Z AUTO 33007KT 10SM OVC038 06/02 A2999 RMK AO2 T00590020